Accueil
METAR-TAF:

METAR-TAF

Aéroports :

Aéroport d'East London

East London, Afrique du Sud

latitude: 33-02S, longitude: 027-50E, altitude: 125 m

Observation

Le bulletin a été fait il y a 1 heure et 0 minutes, à 09:00 UTC
Vent 8 kt de ouest, variant entre ouest/sud-ouest et ouest/nord-ouest
Température 20°C
Humidité 53%
Pression 1028 hPa
Visibilité 10 km ou plus
pas de nuages en-dessous de 1500 mètres et pas de cumulonimbus.

METAR: FAEL 130900Z 27008KT 240V300 CAVOK 20/10 Q1028

Heure: 12:00 (10:00 UTC)

Prévision

Le bulletin a été fait il y a 1 heure et 0 minutes, à 09:00 UTC
Prévision valable du 13 à 10 UTC au 13 à 19 UTC
Vent 7 kt de nord-ouest
Visibilité 10 km ou plus
pas de nuages en-dessous de 1500 mètres et pas de cumulonimbus.

TAF: FAEL 130900Z 1310/1319 32007KT CAVOK TX21/1311Z TN15/1319Z

Observations et prévisions météorologiques de plus de 4000 aéroports (messages METAR et TAF).

Les stations disponibles sont représentées par des disques jaunes et rouges sur la carte.

Passer la souris dessus pour voir le nom de la station.

Cliquer dessus pour voir les observations et prévisions météorologiques.

Pour changer de carte: cliquez sur les boutons verts avec une croix noire pour zoomer, sur le bouton vert avec un tiret pour effectuer un zoom arrière, ou sur les flèches vertes pour les cartes adjacentes.


METAR-TAF: